Impacts TAF Board
For situational awareness. Not to be used for flight planning purposes.
IDs:

KRUT - Rutland/S Vermont Rg, VT, US

Issued at 2320 UTC 28 Nov 2020
Updated at 0116 UTC 29 Nov 2020
Potential Impact None Slight Moderate High
Time0056Z 29/02Z 29/03Z 29/04Z 29/05Z 29/06Z 29/07Z 29/08Z 29/09Z 29/10Z 29/11Z 29/12Z 29/13Z 29/14Z>>
Type OBS PRVL PRVL PRVL PRVL PRVL PRVL PRVL PRVL PRVL PRVL PRVL PRVL PRVL
VIS 10 >6 >6 >6 >6 >6 >6 >6 >6 >6 >6 >6 >6 >6
CIG -- -- -- -- -- -- -- -- -- -- -- -- -- --
Cover FEW SCT SCT SCT SCT SCT SCT SCT SCT SCT SCT SCT SCT SCT
FltCat VFR VFR VFR VFR VFR VFR VFR VFR VFR VFR VFR VFR VFR VFR
WX -- -- -- -- -- -- -- -- -- -- -- -- -- --
WDir 360 270 270 270 200 200 200 200 200 200 200 200 200 200
WSpd 5 6 6 6 4 4 4 4 4 4 4 4 4 4
WGst -- -- -- -- -- -- -- -- -- -- -- -- -- --
R01/19
XWnd -0 6 6 6 1 1 1 1 1 1 1 1 1 1
HWnd 5 0 0 0 -4 -4 -4 -4 -4 -4 -4 -4 -4 -4
R13/31
XWnd 4 -3 -3 -3 -4 -4 -4 -4 -4 -4 -4 -4 -4 -4
HWnd -2 -5 -5 -5 1 1 1 1 1 1 1 1 1 1
Raw TAF
KRUT 282320Z 2900/2924 27006KT P6SM SCT060
  FM290500 20004KT P6SM SCT070
  FM291500 24006KT P6SM SKC


Raw METAR
KRUT 290056Z AUTO 36005KT 10SM FEW041 03/M03 A2999 RMK AO2 SLP157 T00331028 PNO $
KRUT 282356Z AUTO 33004KT 10SM SCT047 04/M02 A2998 RMK AO2 SLP154 6//// T00391022 10056 20033 51016 PNO $
KRUT 282256Z AUTO 28005KT 10SM SCT049 04/M02 A2997 RMK AO2 SLP150 T00441017 PNO $

METAR Board
Radar Display
Forecast Discussion
For situational awareness. Not to be used for flight planning purposes.